Time;durP1;ratioP1;P1;durP2;ratioP2;P2;SDS_P1;SDS_P2;PMS_P1;PMS_P2;Temp;Humidity;BMP_temperature;BMP_pressure;BME280_temperature;BME280_humidity;BME280_pressure;Samples;Min_cycle;Max_cycle;Signal;HPM_P1;HPM_P2
2022/03/27 00:01:42;;;;;;;5.97;4.45;;;13.40;84.20;;;;;;1957610;72;22825;-89
2022/03/27 00:04:52;;;;;;;6.12;4.78;;;13.30;84.60;;;;;;1909792;75;21114;-89
2022/03/27 00:07:43;;;;;;;7.80;5.22;;;13.20;85.00;;;;;;1884909;75;21064;-88
2022/03/27 00:11:23;;;;;;;5.83;4.55;;;13.20;85.70;;;;;;1907463;75;21506;-90
2022/03/27 00:16:09;;;;;;;6.75;4.45;;;13.20;86.20;;;;;;1948130;72;22266;-92
2022/03/27 00:19:21;;;;;;;7.33;4.58;;;13.20;85.90;;;;;;1893279;74;21061;-90
2022/03/27 00:22:16;;;;;;;7.10;4.50;;;13.10;86.00;;;;;;1885039;75;21051;-90
2022/03/27 00:25:10;;;;;;;7.03;4.58;;;13.10;86.30;;;;;;1912458;75;21105;-90
2022/03/27 00:30:44;;;;;;;7.22;4.83;;;13.10;87.20;;;;;;1928962;72;22154;-89
2022/03/27 00:33:54;;;;;;;6.87;4.60;;;13.10;87.50;;;;;;1885512;75;21165;-91
2022/03/27 00:36:46;;;;;;;5.75;4.10;;;12.90;88.00;;;;;;1884321;75;21111;-91
2022/03/27 00:39:37;;;;;;;7.00;4.70;;;12.90;89.10;;;;;;1888619;75;21051;-90
2022/03/27 00:42:29;;;;;;;7.17;5.17;;;12.80;90.00;;;;;;1883638;75;21096;-90
2022/03/27 00:48:00;;;;;;;10.10;4.92;;;12.30;91.80;;;;;;1954448;72;22244;-91
2022/03/27 00:53:52;;;;;;;6.47;4.55;;;12.10;92.60;;;;;;1946015;72;22260;-90
2022/03/27 00:57:03;;;;;;;7.00;5.17;;;12.10;93.00;;;;;;1907232;75;21108;-89
2022/03/27 00:59:56;;;;;;;7.08;4.50;;;12.20;93.20;;;;;;1915181;74;21096;-89
2022/03/27 01:02:51;;;;;;;6.58;4.70;;;12.10;93.50;;;;;;1906670;75;21113;-88
2022/03/27 01:05:45;;;;;;;8.93;4.47;;;12.10;93.60;;;;;;1897581;75;21154;-89
2022/03/27 01:11:21;;;;;;;6.22;4.35;;;12.10;93.70;;;;;;1939822;72;22237;-89
2022/03/27 01:14:34;;;;;;;7.78;4.60;;;12.10;94.00;;;;;;1898933;75;21069;-91
2022/03/27 01:17:27;;;;;;;7.45;4.55;;;12.10;94.30;;;;;;1905254;75;21052;-91
2022/03/27 01:20:24;;;;;;;7.83;4.28;;;12.10;94.50;;;;;;1887488;75;21106;-91
2022/03/27 01:25:57;;;;;;;6.30;4.00;;;12.00;95.20;;;;;;1946985;72;22245;-89
2022/03/27 01:31:58;;;;;;;7.25;5.00;;;12.00;97.60;;;;;;1976499;72;22265;-89
2022/03/27 01:35:10;;;;;;;4.65;4.08;;;11.90;97.30;;;;;;1921000;73;21058;-91
2022/03/27 01:40:55;;;;;;;5.92;4.40;;;11.90;97.70;;;;;;1948934;72;22319;-89
2022/03/27 01:46:45;;;;;;;6.37;3.92;;;11.90;97.60;;;;;;1944556;72;22108;-90
2022/03/27 01:49:55;;;;;;;8.10;5.17;;;11.80;97.60;;;;;;1885389;75;21107;-91
2022/03/27 01:52:47;;;;;;;8.25;4.40;;;11.70;98.00;;;;;;1891533;75;21123;-92
2022/03/27 01:58:19;;;;;;;6.53;4.80;;;11.60;98.60;;;;;;1928681;72;22249;-91
2022/03/27 02:01:30;;;;;;;8.33;4.78;;;11.60;98.80;;;;;;1884675;76;21152;-91
2022/03/27 02:04:22;;;;;;;6.08;4.12;;;11.60;99.00;;;;;;1903770;75;21138;-90
2022/03/27 02:07:13;;;;;;;9.28;4.45;;;11.50;99.60;;;;;;1901029;75;21102;-91
2022/03/27 02:10:06;;;;;;;6.85;4.80;;;11.40;99.90;;;;;;1900160;75;21108;-92
2022/03/27 02:12:58;;;;;;;8.25;5.05;;;11.20;99.90;;;;;;1884504;75;21135;-91
2022/03/27 02:15:49;;;;;;;8.45;4.60;;;11.20;99.90;;;;;;1908012;75;21176;-90
2022/03/27 02:21:20;;;;;;;7.22;5.22;;;11.00;99.90;;;;;;1942559;72;22217;-90
2022/03/27 02:24:30;;;;;;;11.25;5.15;;;11.00;99.90;;;;;;1921310;74;21050;-90
2022/03/27 02:30:02;;;;;;;6.95;5.00;;;11.00;99.90;;;;;;1954798;72;22123;-90
2022/03/27 02:35:57;;;;;;;11.20;4.90;;;10.80;99.90;;;;;;1965904;72;20125;-92
2022/03/27 02:39:06;;;;;;;7.55;4.47;;;10.80;99.90;;;;;;1926718;73;21168;-92
2022/03/27 02:41:58;;;;;;;6.90;4.53;;;10.80;99.90;;;;;;1925079;73;21085;-91
2022/03/27 02:44:49;;;;;;;6.72;4.72;;;10.80;99.90;;;;;;1922593;73;21091;-91
2022/03/27 02:47:41;;;;;;;7.12;4.80;;;10.80;99.90;;;;;;1917674;75;21142;-91
2022/03/27 02:50:32;;;;;;;6.87;4.75;;;10.80;99.90;;;;;;1938279;73;21123;-91
2022/03/27 02:53:24;;;;;;;7.78;4.78;;;10.80;99.90;;;;;;1917974;75;21154;-91
2022/03/27 02:56:16;;;;;;;6.62;4.95;;;10.80;99.90;;;;;;1917840;75;21054;-91
2022/03/27 03:01:47;;;;;;;7.25;4.85;;;10.80;99.90;;;;;;1944788;72;22186;-92
2022/03/27 03:04:57;;;;;;;6.15;4.72;;;10.80;99.90;;;;;;1894845;75;21418;-91
2022/03/27 03:07:50;;;;;;;6.97;4.90;;;10.80;99.90;;;;;;1901810;75;21048;-91
2022/03/27 03:10:45;;;;;;;8.90;5.22;;;10.80;99.90;;;;;;1884790;76;21602;-91
2022/03/27 03:16:17;;;;;;;9.38;5.37;;;10.60;99.90;;;;;;1946492;72;22252;-90
2022/03/27 03:19:27;;;;;;;13.65;6.15;;;10.60;99.90;;;;;;1892994;75;21398;-91
2022/03/27 03:22:19;;;;;;;8.73;6.17;;;10.60;99.90;;;;;;1884694;76;21110;-90
2022/03/27 03:25:11;;;;;;;8.00;5.78;;;10.50;99.90;;;;;;1911292;75;21051;-90
2022/03/27 03:30:42;;;;;;;7.42;5.60;;;10.40;99.90;;;;;;1932714;72;22249;-91
2022/03/27 03:33:52;;;;;;;9.13;6.65;;;10.40;99.90;;;;;;1889231;75;21117;-91
2022/03/27 03:36:44;;;;;;;10.68;6.90;;;10.40;99.90;;;;;;1896278;75;21149;-91
2022/03/27 03:39:35;;;;;;;9.45;6.37;;;10.40;99.90;;;;;;1890222;75;21515;-91
2022/03/27 03:42:27;;;;;;;8.53;6.33;;;10.40;99.90;;;;;;1896299;75;21420;-92
2022/03/27 03:45:18;;;;;;;7.87;6.83;;;10.40;99.90;;;;;;1917609;75;21149;-91
2022/03/27 03:48:10;;;;;;;10.82;6.70;;;10.40;99.90;;;;;;1895825;75;21127;-90
2022/03/27 03:51:02;;;;;;;9.15;6.35;;;10.40;99.90;;;;;;1885893;75;21054;-91
2022/03/27 03:56:43;;;;;;;7.05;5.58;;;10.40;99.90;;;;;;1946239;72;22120;-91
2022/03/27 03:59:53;;;;;;;8.58;5.50;;;10.40;99.90;;;;;;1936528;73;21085;-93
2022/03/27 04:02:44;;;;;;;8.45;5.37;;;10.30;99.90;;;;;;1928701;73;21106;-92
2022/03/27 04:11:07;;;;;;;7.65;5.60;;;10.20;99.90;;;;;;1950465;72;22138;-89
2022/03/27 04:14:21;;;;;;;6.17;5.33;;;10.20;99.90;;;;;;1902667;75;21038;-91
2022/03/27 04:17:15;;;;;;;7.12;5.33;;;10.10;99.90;;;;;;1897487;75;21580;-91
2022/03/27 04:22:47;;;;;;;7.80;5.03;;;10.10;99.90;;;;;;1946123;72;22208;-89
2022/03/27 04:26:02;;;;;;;7.67;4.92;;;10.10;99.90;;;;;;1910471;75;21078;-89
2022/03/27 04:28:53;;;;;;;7.85;4.85;;;10.10;99.90;;;;;;1904042;75;21087;-91
2022/03/27 04:31:44;;;;;;;8.80;5.83;;;10.10;99.90;;;;;;1898133;75;21055;-90
2022/03/27 04:34:36;;;;;;;9.95;5.58;;;10.10;99.90;;;;;;1899031;75;21506;-90
2022/03/27 04:37:27;;;;;;;9.53;6.67;;;10.10;99.90;;;;;;1895449;75;21202;-89
2022/03/27 04:43:00;;;;;;;8.70;6.03;;;10.00;99.90;;;;;;1976530;72;22138;-89
2022/03/27 04:51:29;;;;;;;7.80;6.30;;;9.80;99.90;;;;;;1958273;72;22205;-90
2022/03/27 04:54:40;;;;;;;11.43;7.60;;;9.80;99.90;;;;;;1884544;75;21173;-92
2022/03/27 04:57:37;;;;;;;8.33;5.28;;;9.80;99.90;;;;;;1873821;75;21073;-91
2022/03/27 05:00:28;;;;;;;11.35;6.28;;;9.80;99.90;;;;;;1897670;75;21604;-90
2022/03/27 05:06:00;;;;;;;10.58;6.72;;;9.80;99.90;;;;;;1955594;72;22147;-90
2022/03/27 05:11:51;;;;;;;11.53;6.95;;;9.80;99.90;;;;;;1955607;72;22268;-91
2022/03/27 05:15:01;;;;;;;10.60;7.35;;;9.90;99.90;;;;;;1916727;75;21039;-91
2022/03/27 05:17:54;;;;;;;10.32;7.40;;;9.80;99.90;;;;;;1895700;75;21055;-90
2022/03/27 05:20:46;;;;;;;10.75;7.33;;;9.70;99.90;;;;;;1913402;75;21264;-91
2022/03/27 05:26:17;;;;;;;9.50;7.00;;;9.60;99.90;;;;;;1956223;72;22567;-92
2022/03/27 06:05:06;;;;;;;9.55;5.87;;;9.60;99.90;;;;;;1932413;72;22107;-88
2022/03/27 06:22:44;;;;;;;9.50;6.40;;;9.50;99.90;;;;;;1952842;72;22538;-89
2022/03/27 06:25:54;;;;;;;7.72;6.00;;;9.60;99.90;;;;;;1891215;74;21090;-88
2022/03/27 06:37:41;;;;;;;9.30;5.97;;;10.00;99.90;;;;;;1951651;72;22464;-89
2022/03/27 06:40:50;;;;;;;7.50;6.28;;;10.00;99.90;;;;;;1900289;75;21112;-88
2022/03/27 06:44:32;;;;;;;8.38;6.78;;;10.10;99.90;;;;;;1896985;75;21577;-90
2022/03/27 06:47:26;;;;;;;10.72;5.78;;;10.10;99.90;;;;;;1899833;74;21179;-88
2022/03/27 06:50:21;;;;;;;9.43;5.80;;;10.20;99.90;;;;;;1905802;75;21059;-88
2022/03/27 06:58:35;;;;;;;8.88;6.45;;;10.30;99.90;;;;;;1931036;72;22235;-89
2022/03/27 07:04:54;;;;;;;10.82;6.45;;;10.30;99.90;;;;;;1896324;75;21145;-88
2022/03/27 07:07:45;;;;;;;8.53;6.50;;;10.30;99.90;;;;;;1897142;75;21122;-88
2022/03/27 07:13:21;;;;;;;9.03;6.67;;;10.40;99.90;;;;;;1945692;72;22558;-87
2022/03/27 07:16:31;;;;;;;9.20;6.33;;;10.50;99.90;;;;;;1939317;73;21072;-88
2022/03/27 07:22:00;;;;;;;10.38;6.65;;;10.50;99.90;;;;;;1944204;72;22256;-86
2022/03/27 07:27:57;;;;;;;8.70;6.60;;;10.60;99.90;;;;;;1947253;72;22240;-92
2022/03/27 07:31:07;;;;;;;8.13;6.37;;;10.70;99.90;;;;;;1938920;73;21039;-92
2022/03/27 07:36:37;;;;;;;9.43;6.92;;;10.90;99.90;;;;;;1938470;72;22182;-92
2022/03/27 07:39:47;;;;;;;10.10;6.78;;;10.90;99.90;;;;;;1904873;75;21141;-92
2022/03/27 07:42:40;;;;;;;11.38;6.60;;;11.00;99.90;;;;;;1914715;75;21090;-91
2022/03/27 07:59:59;;;;;;;10.30;6.97;;;11.50;99.90;;;;;;1931200;72;22159;-92
2022/03/27 08:03:09;;;;;;;9.50;6.42;;;11.50;99.90;;;;;;1889612;75;21491;-91
2022/03/27 08:08:41;;;;;;;10.72;7.50;;;11.70;99.90;;;;;;1962771;72;22128;-93
2022/03/27 08:11:52;;;;;;;12.15;7.72;;;11.70;99.90;;;;;;1913651;74;21059;-92
2022/03/27 08:14:46;;;;;;;10.58;7.50;;;11.80;99.90;;;;;;1927796;74;21161;-91
2022/03/27 08:17:37;;;;;;;9.30;7.28;;;11.90;99.90;;;;;;1905205;75;21228;-92
2022/03/27 08:20:29;;;;;;;9.53;7.03;;;11.90;99.90;;;;;;1900541;75;21103;-91
2022/03/27 08:23:22;;;;;;;15.72;7.58;;;12.10;99.90;;;;;;1918519;74;21122;-91
2022/03/27 08:29:23;;;;;;;8.13;6.87;;;12.30;99.90;;;;;;1910405;74;21161;-92
2022/03/27 08:32:16;;;;;;;9.78;6.85;;;12.30;99.90;;;;;;1905133;75;21531;-92
2022/03/27 08:35:09;;;;;;;9.75;6.83;;;12.40;99.90;;;;;;1905306;75;21080;-92
2022/03/27 08:38:03;;;;;;;8.93;7.20;;;12.40;99.90;;;;;;1870527;77;21174;-92
2022/03/27 08:41:01;;;;;;;10.63;6.70;;;12.60;99.90;;;;;;1905329;75;21068;-92
2022/03/27 08:43:58;;;;;;;8.95;6.80;;;12.70;99.90;;;;;;1910364;74;21149;-91
2022/03/27 08:46:47;;;;;;;10.18;7.22;;;12.70;99.90;;;;;;1911580;74;21048;-91
2022/03/27 08:49:44;;;;;;;10.72;6.97;;;12.80;99.90;;;;;;1905287;75;21129;-92
2022/03/27 08:52:43;;;;;;;12.20;8.18;;;12.90;99.90;;;;;;1929267;74;21044;-90
2022/03/27 08:58:27;;;;;;;11.43;7.80;;;13.00;99.90;;;;;;1945259;72;22511;-91
2022/03/27 09:01:39;;;;;;;9.75;7.35;;;13.10;99.90;;;;;;1917618;75;21102;-92
2022/03/27 09:07:29;;;;;;;9.40;6.90;;;13.40;99.90;;;;;;1952162;72;22159;-92
2022/03/27 09:13:20;;;;;;;8.30;6.67;;;13.60;99.90;;;;;;1955530;72;22192;-91
2022/03/27 09:16:30;;;;;;;10.32;6.40;;;13.70;99.90;;;;;;1886407;75;21193;-94
2022/03/27 09:22:18;;;;;;;12.20;7.40;;;13.90;99.90;;;;;;1962407;72;22123;-92
2022/03/27 09:25:28;;;;;;;9.58;6.28;;;14.00;99.90;;;;;;1924239;73;21085;-91
2022/03/27 09:31:26;;;;;;;6.92;5.85;;;14.20;98.60;;;;;;1963976;72;22154;-92
2022/03/27 09:37:41;;;;;;;7.78;4.70;;;14.50;94.80;;;;;;1942017;72;22149;-87
2022/03/27 09:40:51;;;;;;;6.95;5.03;;;14.70;93.50;;;;;;1905337;75;21038;-88
2022/03/27 09:46:59;;;;;;;6.10;4.85;;;14.90;87.70;;;;;;1921304;74;22145;-90
2022/03/27 09:50:10;;;;;;;7.75;5.08;;;15.00;86.30;;;;;;1859463;75;21126;-88
2022/03/27 09:56:20;;;;;;;8.90;5.37;;;15.10;84.40;;;;;;1922752;72;22191;-88
2022/03/27 09:59:34;;;;;;;6.87;5.30;;;15.10;81.30;;;;;;1942990;73;21023;-88
2022/03/27 10:05:09;;;;;;;7.60;5.47;;;15.30;78.20;;;;;;1929014;72;22255;-87
2022/03/27 10:10:58;;;;;;;8.28;5.08;;;15.40;70.80;;;;;;1942231;72;22593;-89
2022/03/27 10:14:09;;;;;;;8.73;4.62;;;15.50;72.20;;;;;;1898845;75;21145;-87
2022/03/27 10:17:01;;;;;;;6.62;4.50;;;15.60;72.60;;;;;;1892657;75;21227;-88
2022/03/27 10:19:54;;;;;;;6.12;4.70;;;15.80;70.30;;;;;;1899846;75;21082;-91
2022/03/27 10:22:48;;;;;;;5.67;4.55;;;15.90;68.40;;;;;;1901422;75;21235;-89
2022/03/27 10:25:43;;;;;;;5.37;4.40;;;16.00;65.70;;;;;;1895925;75;21197;-88
2022/03/27 10:29:42;;;;;;;6.20;4.78;;;16.10;64.50;;;;;;1903934;75;21106;-88
2022/03/27 10:33:04;;;;;;;6.78;4.85;;;16.20;64.50;;;;;;1898992;75;21081;-88
2022/03/27 10:36:01;;;;;;;8.50;5.12;;;16.30;62.50;;;;;;1903786;75;21107;-88
2022/03/27 10:41:36;;;;;;;6.90;4.75;;;16.60;62.90;;;;;;1948177;72;22169;-88
2022/03/27 10:47:34;;;;;;;7.15;5.05;;;16.70;60.90;;;;;;1926966;72;22276;-90
2022/03/27 10:56:08;;;;;;;7.33;5.12;;;17.10;59.60;;;;;;1953841;72;22153;-76
2022/03/27 11:01:59;;;;;;;6.17;4.92;;;17.30;59.30;;;;;;1946140;72;22343;-76
2022/03/27 11:05:12;;;;;;;5.53;4.70;;;17.50;57.60;;;;;;1895081;75;21120;-77
2022/03/27 11:08:39;;;;;;;6.28;5.10;;;17.70;57.00;;;;;;1895662;75;21066;-77
2022/03/27 11:11:59;;;;;;;6.40;4.40;;;17.90;55.40;;;;;;1915430;75;21058;-76
2022/03/27 11:15:02;;;;;;;6.37;4.25;;;18.00;55.60;;;;;;1917195;75;21146;-76
2022/03/27 11:17:57;;;;;;;8.75;4.50;;;18.10;54.50;;;;;;1895320;75;21101;-76
2022/03/27 11:20:49;;;;;;;6.65;4.87;;;18.30;53.20;;;;;;1906642;75;21062;-77
2022/03/27 11:26:37;;;;;;;6.65;5.10;;;18.60;52.20;;;;;;1945383;72;22184;-78
2022/03/27 11:30:07;;;;;;;6.47;4.95;;;18.60;51.70;;;;;;1905362;75;21046;-77
2022/03/27 11:36:24;;;;;;;6.03;4.85;;;18.70;51.30;;;;;;1948334;72;22157;-76
2022/03/27 11:45:25;;;;;;;6.97;5.20;;;18.90;51.20;;;;;;1955757;72;22198;-76
2022/03/27 11:51:16;;;;;;;5.95;4.75;;;19.20;50.60;;;;;;1937234;72;22247;-76
2022/03/27 11:54:26;;;;;;;7.25;4.60;;;19.40;49.50;;;;;;1886118;75;21046;-78
2022/03/27 11:57:18;;;;;;;5.30;4.25;;;19.10;48.90;;;;;;1888733;75;21132;-80
2022/03/27 12:02:55;;;;;;;6.47;5.17;;;19.30;49.10;;;;;;1934022;72;28513;-85
2022/03/27 12:06:10;;;;;;;6.47;4.67;;;19.60;48.10;;;;;;1941210;73;21023;-85
2022/03/27 12:11:41;;;;;;;7.35;4.62;;;19.60;47.90;;;;;;1951711;72;22188;-84
2022/03/27 12:14:53;;;;;;;6.12;4.55;;;19.70;47.90;;;;;;1903492;75;21068;-84
2022/03/27 12:17:47;;;;;;;7.03;4.70;;;20.00;48.30;;;;;;1883684;75;21079;-84
2022/03/27 12:20:47;;;;;;;4.78;4.30;;;20.00;47.80;;;;;;1882472;75;21627;-84
2022/03/27 12:29:53;;;;;;;5.30;4.12;;;20.40;47.70;;;;;;1907414;75;21102;-85
2022/03/27 12:32:46;;;;;;;5.92;3.92;;;20.60;47.00;;;;;;1884575;75;21168;-85
2022/03/27 12:35:37;;;;;;;6.55;4.42;;;20.40;46.70;;;;;;1907160;75;21106;-84
2022/03/27 12:38:33;;;;;;;7.10;4.28;;;20.70;47.00;;;;;;1907539;75;21131;-84
2022/03/27 12:41:42;;;;;;;5.72;4.00;;;20.90;45.90;;;;;;1903171;75;21126;-83
2022/03/27 12:47:33;;;;;;;8.15;4.95;;;20.70;45.30;;;;;;1941594;72;28001;-83
2022/03/27 12:50:45;;;;;;;4.65;4.10;;;21.20;44.30;;;;;;1897969;75;21144;-83
2022/03/27 12:56:17;;;;;;;6.37;4.30;;;21.40;44.60;;;;;;1953375;72;22225;-82
2022/03/27 13:02:30;;;;;;;4.62;4.12;;;21.50;44.60;;;;;;1946143;72;22302;-82
2022/03/27 13:05:41;;;;;;;7.15;4.58;;;21.40;44.00;;;;;;1925890;73;21129;-82
2022/03/27 13:08:35;;;;;;;5.08;4.28;;;21.20;43.40;;;;;;1937903;73;21265;-82
2022/03/27 13:11:27;;;;;;;5.75;4.40;;;21.20;43.70;;;;;;1917694;75;21051;-82
2022/03/27 13:14:19;;;;;;;6.87;4.30;;;21.40;44.00;;;;;;1933194;73;21513;-81
2022/03/27 13:17:15;;;;;;;4.95;4.20;;;21.50;43.70;;;;;;1930014;73;21213;-82
2022/03/27 13:22:47;;;;;;;5.30;4.42;;;21.80;42.80;;;;;;1945170;72;22191;-81
2022/03/27 13:25:57;;;;;;;5.70;4.10;;;21.80;42.00;;;;;;1893588;75;21125;-81
2022/03/27 13:31:28;;;;;;;5.08;4.50;;;21.60;41.80;;;;;;1941281;72;22240;-81
2022/03/27 13:34:40;;;;;;;6.58;4.83;;;21.70;41.40;;;;;;1904912;75;21135;-81
2022/03/27 13:37:31;;;;;;;5.42;4.67;;;21.40;40.20;;;;;;1892190;75;21219;-81
2022/03/27 13:42:57;;;;;;;5.15;4.65;;;21.60;40.90;;;;;;1907171;75;21167;-81
2022/03/27 13:45:57;;;;;;;5.62;4.17;;;21.90;40.70;;;;;;1939198;72;22195;-81
2022/03/27 13:49:07;;;;;;;6.03;4.55;;;21.60;39.90;;;;;;1897880;75;21526;-81
2022/03/27 13:52:00;;;;;;;5.75;4.65;;;21.50;39.10;;;;;;1918849;73;21063;-81
2022/03/27 13:54:52;;;;;;;6.45;4.53;;;21.50;38.90;;;;;;1905383;75;21120;-81
2022/03/27 13:57:44;;;;;;;7.03;5.15;;;21.50;38.60;;;;;;1912458;75;21589;-81
2022/03/27 14:00:36;;;;;;;5.10;4.58;;;21.60;38.20;;;;;;1901623;75;21230;-80
2022/03/27 14:06:09;;;;;;;6.47;4.37;;;21.70;38.60;;;;;;1953732;72;22163;-80
2022/03/27 14:09:22;;;;;;;5.60;4.53;;;21.60;38.50;;;;;;1902104;75;21056;-80
2022/03/27 14:12:14;;;;;;;5.42;4.92;;;21.90;39.30;;;;;;1903787;75;21168;-80
2022/03/27 14:15:11;;;;;;;6.60;5.50;;;22.20;39.10;;;;;;1899109;75;21084;-82
2022/03/27 14:18:02;;;;;;;7.78;5.72;;;22.60;39.30;;;;;;1884490;75;21058;-80
2022/03/27 14:20:54;;;;;;;5.95;4.85;;;22.60;38.50;;;;;;1903760;75;21063;-80
2022/03/27 14:26:25;;;;;;;7.15;5.35;;;24.00;37.80;;;;;;1962601;72;22117;-80
2022/03/27 14:29:37;;;;;;;6.80;5.70;;;24.10;37.10;;;;;;1922168;74;21063;-80
2022/03/27 14:32:29;;;;;;;7.20;5.80;;;23.80;36.60;;;;;;1927774;74;21599;-80
2022/03/27 14:35:23;;;;;;;6.08;5.35;;;23.60;36.60;;;;;;1907083;74;21134;-81
2022/03/27 14:41:11;;;;;;;6.83;5.20;;;23.80;36.80;;;;;;1961165;72;22178;-80
2022/03/27 14:44:22;;;;;;;8.50;5.92;;;24.20;37.10;;;;;;1917588;73;21055;-81
2022/03/27 14:50:12;;;;;;;11.53;7.60;;;24.00;36.80;;;;;;1932373;72;28001;-79
2022/03/27 14:56:00;;;;;;;7.67;6.12;;;24.10;37.00;;;;;;1958194;72;22204;-81
2022/03/27 15:01:49;;;;;;;6.72;5.65;;;24.00;37.30;;;;;;1944201;72;22197;-76
2022/03/27 15:04:59;;;;;;;6.37;5.70;;;24.10;37.50;;;;;;1903537;75;21526;-76
2022/03/27 15:07:51;;;;;;;8.65;6.00;;;24.30;37.90;;;;;;1915671;75;21537;-75
2022/03/27 15:13:22;;;;;;;8.80;5.83;;;24.50;36.90;;;;;;1943201;72;22313;-75
2022/03/27 15:16:31;;;;;;;6.87;5.42;;;24.90;37.40;;;;;;1933568;73;21122;-75
2022/03/27 15:19:22;;;;;;;7.10;5.97;;;25.20;36.90;;;;;;1916876;75;21163;-75
2022/03/27 15:22:14;;;;;;;6.72;5.55;;;25.70;36.80;;;;;;1916781;75;21102;-76
2022/03/27 15:25:08;;;;;;;8.15;6.08;;;25.60;35.80;;;;;;1917075;75;21197;-76
2022/03/27 15:27:59;;;;;;;7.65;6.00;;;26.30;35.80;;;;;;1916979;75;21132;-76
2022/03/27 15:33:29;;;;;;;7.03;5.58;;;26.60;34.90;;;;;;1951847;72;22209;-76
2022/03/27 15:36:39;;;;;;;10.70;6.05;;;26.60;34.40;;;;;;1950799;73;21535;-77
2022/03/27 15:42:10;;;;;;;8.40;5.75;;;26.40;34.80;;;;;;1945201;72;22280;-76
2022/03/27 15:48:00;;;;;;;5.53;4.95;;;25.60;34.00;;;;;;1953360;72;22157;-76
2022/03/27 15:51:10;;;;;;;6.75;5.37;;;25.30;34.30;;;;;;1895048;75;21079;-77
2022/03/27 15:56:40;;;;;;;6.75;5.22;;;24.40;34.80;;;;;;1934724;72;22290;-76
2022/03/27 15:59:51;;;;;;;8.10;5.33;;;24.60;34.70;;;;;;1910649;75;21627;-77
2022/03/27 16:02:46;;;;;;;7.33;5.58;;;24.70;34.80;;;;;;1905909;75;21069;-77
2022/03/27 16:05:37;;;;;;;6.60;5.25;;;24.60;34.20;;;;;;1901398;75;21114;-77
2022/03/27 16:11:09;;;;;;;5.55;4.95;;;24.40;34.80;;;;;;1952039;72;22567;-77
2022/03/27 16:16:59;;;;;;;7.58;4.87;;;24.10;35.10;;;;;;1948451;72;22669;-78
2022/03/27 16:20:11;;;;;;;6.40;5.30;;;23.60;34.80;;;;;;1902545;75;21071;-78
2022/03/27 16:23:03;;;;;;;6.08;4.67;;;23.50;35.00;;;;;;1896111;75;21598;-78
2022/03/27 16:25:54;;;;;;;5.25;4.58;;;23.60;34.90;;;;;;1912505;75;21084;-78
2022/03/27 16:31:25;;;;;;;7.12;4.72;;;23.20;35.00;;;;;;1953959;72;22302;-78
2022/03/27 16:34:36;;;;;;;7.40;4.42;;;23.50;35.70;;;;;;1913316;75;21147;-79
2022/03/27 16:37:27;;;;;;;5.90;4.37;;;23.70;36.30;;;;;;1903336;75;21222;-80
2022/03/27 16:40:18;;;;;;;4.92;4.17;;;23.60;36.40;;;;;;1905991;75;21090;-79
2022/03/27 16:43:10;;;;;;;13.68;4.35;;;23.70;36.10;;;;;;1905461;75;21076;-79
2022/03/27 16:51:19;;;;;;;9.58;4.30;;;22.20;36.80;;;;;;1934335;72;22244;-79
2022/03/27 16:57:07;;;;;;;5.65;4.08;;;21.30;38.00;;;;;;1930754;72;22262;-79
2022/03/27 17:00:19;;;;;;;5.17;3.90;;;21.10;38.10;;;;;;1912291;74;21155;-81
2022/03/27 17:03:10;;;;;;;5.78;4.08;;;20.90;38.20;;;;;;1912370;75;21230;-81
2022/03/27 17:06:02;;;;;;;7.15;4.20;;;20.60;38.30;;;;;;1896524;75;21105;-79
2022/03/27 17:08:54;;;;;;;6.20;4.00;;;20.50;38.50;;;;;;1912845;74;21109;-79
2022/03/27 17:11:45;;;;;;;5.22;3.80;;;20.40;38.80;;;;;;1866644;76;21195;-79
2022/03/27 17:14:38;;;;;;;7.25;4.12;;;20.10;38.70;;;;;;1916293;75;21163;-79
2022/03/27 17:17:30;;;;;;;7.08;4.17;;;20.00;38.70;;;;;;1879019;76;21505;-80
2022/03/27 17:20:21;;;;;;;6.60;4.17;;;19.80;39.10;;;;;;1916474;75;21063;-80
2022/03/27 17:23:13;;;;;;;6.50;4.17;;;19.80;39.80;;;;;;1897070;75;21113;-75
2022/03/27 17:26:05;;;;;;;5.12;4.17;;;19.70;40.00;;;;;;1869344;76;21122;-75
2022/03/27 17:28:57;;;;;;;6.30;4.00;;;19.60;40.00;;;;;;1858328;76;21184;-75
2022/03/27 17:31:52;;;;;;;5.33;3.72;;;19.60;39.90;;;;;;1851753;76;21345;-75
2022/03/27 17:34:52;;;;;;;3.98;3.58;;;19.40;39.80;;;;;;1910256;74;21099;-75
2022/03/27 17:37:48;;;;;;;5.83;3.40;;;19.40;40.00;;;;;;1905339;75;21127;-75
2022/03/27 17:40:40;;;;;;;4.28;3.40;;;19.30;40.30;;;;;;1909333;75;21164;-75
2022/03/27 17:43:34;;;;;;;4.12;3.37;;;19.10;40.30;;;;;;1908721;74;21058;-75
2022/03/27 17:46:26;;;;;;;7.12;3.80;;;19.10;40.40;;;;;;1915468;74;21051;-75
2022/03/27 17:49:20;;;;;;;5.12;3.80;;;19.00;40.70;;;;;;1919288;74;21042;-75
2022/03/27 17:52:13;;;;;;;3.72;3.37;;;18.90;40.60;;;;;;1857040;76;21164;-75
2022/03/27 17:55:07;;;;;;;7.90;3.60;;;18.80;41.20;;;;;;1911893;75;21107;-75
2022/03/27 17:57:59;;;;;;;7.83;4.37;;;18.80;41.40;;;;;;1916362;74;21203;-75
2022/03/27 18:00:50;;;;;;;10.98;5.90;;;18.80;41.50;;;;;;1908468;74;21163;-75
2022/03/27 18:03:44;;;;;;;4.80;4.00;;;18.60;42.30;;;;;;1848399;76;21111;-77
2022/03/27 18:06:39;;;;;;;6.80;5.45;;;18.30;42.80;;;;;;1912437;75;21113;-75
2022/03/27 18:09:31;;;;;;;6.50;4.15;;;18.20;43.30;;;;;;1898719;75;21097;-75
2022/03/27 18:15:10;;;;;;;9.43;5.08;;;17.90;43.40;;;;;;1960766;72;22729;-76
2022/03/27 18:18:20;;;;;;;11.15;5.30;;;17.70;43.70;;;;;;1922520;73;21183;-75
2022/03/27 18:21:12;;;;;;;4.58;3.87;;;17.40;46.70;;;;;;1926793;73;21163;-76
2022/03/27 18:24:04;;;;;;;5.55;4.47;;;17.10;45.70;;;;;;1925012;73;21050;-76
2022/03/27 18:26:56;;;;;;;8.90;3.92;;;17.00;45.90;;;;;;1923041;73;21211;-75
2022/03/27 18:29:51;;;;;;;6.80;4.10;;;16.90;47.30;;;;;;1927564;73;21187;-75
2022/03/27 18:32:41;;;;;;;5.75;3.80;;;16.70;46.40;;;;;;1917257;75;21180;-75
2022/03/27 18:35:32;;;;;;;5.72;4.17;;;16.80;46.60;;;;;;1916722;75;21099;-75
2022/03/27 18:38:25;;;;;;;6.20;4.28;;;16.80;46.00;;;;;;1914305;73;21543;-75
2022/03/27 18:41:17;;;;;;;5.70;4.35;;;16.80;47.40;;;;;;1925531;73;21117;-75
2022/03/27 18:44:08;;;;;;;9.60;4.65;;;16.70;47.10;;;;;;1916543;73;21109;-76
2022/03/27 18:47:00;;;;;;;4.60;3.70;;;16.50;47.10;;;;;;1917825;73;21117;-75
2022/03/27 18:49:52;;;;;;;5.67;3.95;;;16.50;47.10;;;;;;1938598;73;21581;-75
2022/03/27 18:52:44;;;;;;;5.25;3.98;;;16.50;47.40;;;;;;1923867;73;21198;-75
2022/03/27 18:55:38;;;;;;;6.58;4.05;;;16.40;47.50;;;;;;1928899;73;21152;-75
2022/03/27 18:58:30;;;;;;;8.80;3.90;;;16.30;48.60;;;;;;1917091;75;21504;-89
2022/03/27 19:01:29;;;;;;;5.62;4.12;;;16.10;49.60;;;;;;1916899;73;21095;-88
2022/03/27 19:04:22;;;;;;;5.37;4.08;;;16.00;49.20;;;;;;1916631;73;21650;-89
2022/03/27 19:07:13;;;;;;;5.53;3.90;;;16.00;49.30;;;;;;1918406;73;21112;-89
2022/03/27 19:10:07;;;;;;;4.03;3.62;;;15.80;50.40;;;;;;1925111;73;21124;-90
2022/03/27 19:15:45;;;;;;;7.58;4.37;;;15.60;50.10;;;;;;1932395;72;22410;-91
2022/03/27 19:18:58;;;;;;;6.00;4.33;;;15.70;50.00;;;;;;1893981;74;21106;-89
2022/03/27 19:21:56;;;;;;;5.90;4.37;;;15.60;51.00;;;;;;1859409;76;21884;-89
2022/03/27 19:24:48;;;;;;;8.20;5.25;;;15.50;51.60;;;;;;1894135;75;21202;-89
2022/03/27 19:27:41;;;;;;;6.15;4.83;;;15.40;53.40;;;;;;1899436;75;21189;-85
2022/03/27 19:30:33;;;;;;;6.42;4.45;;;15.30;52.50;;;;;;1890842;75;21051;-90
2022/03/27 19:33:25;;;;;;;7.72;5.12;;;15.30;52.10;;;;;;1898128;75;21106;-90
2022/03/27 19:36:21;;;;;;;7.87;5.30;;;15.30;52.40;;;;;;1901711;75;21113;-90
2022/03/27 19:39:10;;;;;;;8.65;6.15;;;15.40;52.40;;;;;;1902090;75;21274;-89
2022/03/27 19:42:02;;;;;;;10.38;6.53;;;15.40;52.60;;;;;;1897124;75;21087;-90
2022/03/27 19:44:56;;;;;;;10.38;6.30;;;15.30;53.40;;;;;;1914646;75;21097;-91
2022/03/27 19:47:50;;;;;;;11.38;6.28;;;15.30;53.00;;;;;;1907995;75;21261;-90
2022/03/27 19:53:20;;;;;;;7.67;5.40;;;15.10;53.90;;;;;;1971494;72;22582;-90
2022/03/27 19:56:30;;;;;;;5.83;3.95;;;15.10;53.90;;;;;;1905047;74;21127;-90
2022/03/27 19:59:23;;;;;;;6.42;4.67;;;14.90;56.00;;;;;;1907844;74;21177;-92
2022/03/27 20:02:16;;;;;;;9.15;4.50;;;14.60;55.40;;;;;;1903908;75;21173;-91
2022/03/27 20:05:13;;;;;;;7.87;5.03;;;14.50;55.50;;;;;;1934818;74;21148;-92
2022/03/27 20:08:05;;;;;;;7.40;5.67;;;14.50;55.30;;;;;;1904363;75;21095;-91
2022/03/27 20:10:58;;;;;;;8.20;4.90;;;14.50;55.20;;;;;;1904459;75;21089;-91
2022/03/27 20:13:52;;;;;;;7.75;4.92;;;14.50;55.30;;;;;;1904898;75;21239;-90
2022/03/27 20:16:44;;;;;;;10.60;4.72;;;14.50;55.20;;;;;;1917156;74;21566;-90
2022/03/27 20:19:39;;;;;;;9.33;5.78;;;14.50;55.90;;;;;;1907346;74;21114;-91
2022/03/27 20:22:32;;;;;;;9.33;5.85;;;14.40;56.00;;;;;;1911921;74;21087;-90
2022/03/27 20:25:24;;;;;;;7.75;5.37;;;14.30;56.90;;;;;;1863087;77;21155;-90
2022/03/27 20:30:55;;;;;;;7.35;5.12;;;14.20;56.90;;;;;;1944116;72;22290;-90
2022/03/27 20:34:06;;;;;;;6.22;4.67;;;14.10;56.40;;;;;;1943887;73;21115;-89
2022/03/27 20:36:58;;;;;;;8.13;4.70;;;14.10;56.40;;;;;;1922778;73;21184;-90